This is the latest recevied weather packets stored in our database for station/object EA4HRG-10. If no packets are shown the sender has not sent any weather packets the latest 10 day(s).
| Time | Temp. | Humidity | Pressure | Rain* | Wind** | Luminosity | Snow |
|---|---|---|---|---|---|---|---|
| 1788296139 | 23.89° C | 55% | 1017.9 hPa | - | - | - | - |
| 1788295238 | 24.44° C | 54% | 1017.5 hPa | - | - | - | - |
| 1788294338 | 25° C | 53% | 1017.1 hPa | - | - | - | - |
| 1788293438 | 25° C | 51% | 1016.8 hPa | - | - | - | - |
| 1788292538 | 25° C | 47% | 1016.5 hPa | - | - | - | - |
| 1788291638 | 25.56° C | 45% | 1016.1 hPa | - | - | - | - |
| 1788290739 | 26.11° C | 39% | 1015.5 hPa | - | - | - | - |
| 1788289839 | 26.67° C | 36% | 1015.1 hPa | - | - | - | - |
| 1788288938 | 27.22° C | 35% | 1014.6 hPa | - | - | - | - |
| 1788288038 | 28.33° C | 33% | 1014.1 hPa | - | - | - | - |
| 1788287138 | 29.44° C | 31% | 1013.6 hPa | - | - | - | - |
| 1788286238 | 30.56° C | 28% | 1013 hPa | - | - | - | - |
| 1788285338 | 33.33° C | 24% | 1012.1 hPa | - | - | - | - |
| 1788284438 | 34.44° C | 23% | 1011.7 hPa | - | - | - | - |
| 1788283538 | 35.56° C | 22% | 1011.3 hPa | - | - | - | - |
| 1788282660 | 35.56° C | 21% | 1011.2 hPa | - | - | - | - |
| 1788281738 | 35° C | 22% | 1011.2 hPa | - | - | - | - |
| 1788280838 | 36.11° C | 21% | 1011 hPa | - | - | - | - |
| 1788279938 | 36.11° C | 21% | 1011 hPa | - | - | - | - |
| 1788279038 | 35.56° C | 21% | 1011.2 hPa | - | - | - | - |
| 1788278138 | 38.33° C | 18% | 1010.5 hPa | - | - | - | - |
| 1788277238 | 38.33° C | 18% | 1010.4 hPa | - | - | - | - |
| 1788276338 | 38.33° C | 18% | 1010.6 hPa | - | - | - | - |
| 1788275438 | 38.33° C | 17% | 1010.5 hPa | - | - | - | - |
| 1788274538 | 38.89° C | 18% | 1010.3 hPa | - | - | - | - |
* Rain since midnight (hover to see other rain measurements)
** Current wind speed in m/s (hover to see current wind gust speed)